Time;durP1;ratioP1;P1;durP2;ratioP2;P2;SDS_P1;SDS_P2;PMS_P1;PMS_P2;Temp;Humidity;BMP_temperature;BMP_pressure;BME280_temperature;BME280_humidity;BME280_pressure;Samples;Min_cycle;Max_cycle;Signal;HPM_P1;HPM_P2
2022/10/03 00:01:26;;;;;;;1.37;1.27;;;;;;;11.73;78.42;99502.82;1810712;79;20892;-84
2022/10/03 00:04:16;;;;;;;3.20;1.52;;;;;;;11.74;78.54;99502.36;1801300;79;21266;-84
2022/10/03 00:07:31;;;;;;;1.85;0.98;;;;;;;11.73;78.55;99506.76;1809748;78;20896;-85
2022/10/03 00:10:26;;;;;;;1.10;1.00;;;;;;;11.72;78.72;99506.91;1781426;79;27024;-84
2022/10/03 00:13:27;;;;;;;3.07;1.43;;;;;;;11.72;78.63;99509.53;1781637;80;20960;-84
2022/10/03 00:16:24;;;;;;;3.35;2.30;;;;;;;11.71;78.51;99507.85;1780774;80;21597;-85
2022/10/03 00:19:17;;;;;;;1.00;1.00;;;;;;;11.70;78.61;99513.59;1731707;80;21250;-84
2022/10/03 00:22:04;;;;;;;1.47;1.17;;;;;;;11.68;78.73;99516.82;1782468;80;20928;-84
2022/10/03 00:24:47;;;;;;;1.07;0.98;;;;;;;11.71;78.84;99519.67;1781584;80;20971;-84
2022/10/03 00:27:40;;;;;;;3.62;1.25;;;;;;;11.73;78.85;99528.26;1781421;80;20908;-85
2022/10/03 00:30:21;;;;;;;1.07;0.98;;;;;;;11.76;78.87;99522.73;1781423;80;20940;-84
2022/10/03 00:33:03;;;;;;;1.70;0.70;;;;;;;11.80;78.83;99534.20;1781330;80;21148;-84
2022/10/03 00:36:01;;;;;;;2.15;1.10;;;;;;;11.82;78.82;99533.57;1781389;80;20965;-83
2022/10/03 00:38:55;;;;;;;1.02;0.93;;;;;;;11.87;78.70;99534.99;1781429;80;21382;-84
2022/10/03 00:41:42;;;;;;;2.47;0.70;;;;;;;11.90;78.67;99538.73;1781472;80;25987;-83
2022/10/03 00:44:38;;;;;;;4.20;1.02;;;;;;;11.92;78.64;99530.24;1781272;80;21535;-84
2022/10/03 00:47:25;;;;;;;1.00;1.00;;;;;;;11.91;78.45;99526.75;1802291;78;21126;-84
2022/10/03 00:50:33;;;;;;;1.32;1.15;;;;;;;11.91;78.38;99527.24;1810188;79;20834;-84
2022/10/03 00:53:17;;;;;;;2.00;1.20;;;;;;;11.88;78.48;99539.33;1810333;79;20935;-85
2022/10/03 00:56:41;;;;;;;1.20;1.10;;;;;;;11.82;78.53;99534.06;1810539;79;20916;-84
2022/10/03 00:59:28;;;;;;;1.42;0.90;;;;;;;11.75;78.54;99534.22;1810258;79;20888;-84
2022/10/03 01:01:55;;;;;;;2.08;1.37;;;;;;;11.68;78.58;99533.89;1810043;79;21241;-84
2022/10/03 01:04:30;;;;;;;1.07;1.00;;;;;;;11.64;78.73;99531.64;1810454;79;20873;-84
2022/10/03 01:07:37;;;;;;;1.27;1.10;;;;;;;11.59;78.82;99543.84;1810345;79;20848;-84
2022/10/03 01:10:25;;;;;;;1.20;1.10;;;;;;;11.53;78.90;99540.39;1810313;79;20900;-84
2022/10/03 01:13:07;;;;;;;1.00;0.95;;;;;;;11.46;78.91;99540.55;1810427;79;20918;-84
2022/10/03 01:15:44;;;;;;;3.58;1.35;;;;;;;11.40;79.07;99549.73;1810353;79;21165;-84
2022/10/03 01:18:44;;;;;;;1.05;0.90;;;;;;;11.34;79.00;99548.94;1809872;79;21013;-84
2022/10/03 01:21:32;;;;;;;1.32;1.22;;;;;;;11.27;78.79;99549.91;1810050;79;20908;-84
2022/10/03 01:24:25;;;;;;;1.57;1.12;;;;;;;11.21;78.73;99550.39;1810551;79;20968;-83
2022/10/03 01:27:17;;;;;;;1.17;0.93;;;;;;;11.15;78.76;99547.77;1812764;79;20904;-84
2022/10/03 01:32:51;;;;;;;2.37;1.25;;;;;;;11.07;78.74;99558.51;1812427;79;20904;-83
2022/10/03 01:35:36;;;;;;;1.55;1.07;;;;;;;11.03;78.88;99551.83;1795733;79;20870;-82
2022/10/03 01:38:23;;;;;;;1.32;1.10;;;;;;;10.97;78.95;99561.86;1809898;79;20905;-82
2022/10/03 01:41:05;;;;;;;2.02;1.05;;;;;;;10.94;79.07;99562.59;1812883;79;20913;-81
2022/10/03 01:43:44;;;;;;;1.73;1.10;;;;;;;10.90;79.15;99565.10;1813174;79;21206;-84
2022/10/03 01:46:27;;;;;;;1.30;1.20;;;;;;;10.85;79.27;99570.71;1813143;79;20920;-83
2022/10/03 01:49:21;;;;;;;3.05;1.12;;;;;;;10.81;79.48;99569.27;1811438;79;20901;-84
2022/10/03 01:52:22;;;;;;;2.55;1.30;;;;;;;10.77;79.71;99572.60;1813422;79;20857;-84
2022/10/03 01:55:03;;;;;;;1.90;1.17;;;;;;;10.74;80.00;99570.23;1810566;79;21338;-84
2022/10/03 01:57:48;;;;;;;3.12;1.50;;;;;;;10.70;80.36;99582.39;1810750;79;21324;-84
2022/10/03 02:00:23;;;;;;;4.03;1.40;;;;;;;10.66;80.70;99576.53;1810717;79;21454;-83
2022/10/03 02:03:09;;;;;;;1.55;1.45;;;;;;;10.64;80.98;99581.54;1810466;79;20869;-84
2022/10/03 02:05:39;;;;;;;;;;;;;;;10.62;81.36;99587.38;1812538;79;21414;-84
2022/10/03 02:08:29;;;;;;;2.92;1.72;;;;;;;10.58;81.81;99586.31;1810542;79;20095;-84
2022/10/03 02:11:08;;;;;;;3.33;1.95;;;;;;;10.56;82.23;99588.22;1810491;79;21802;-83
2022/10/03 02:13:59;;;;;;;5.65;2.30;;;;;;;10.53;82.62;99587.12;1810333;79;21357;-83
2022/10/03 02:16:41;;;;;;;1.72;1.62;;;;;;;10.50;83.01;99594.40;1809585;79;20826;-83
2022/10/03 02:19:29;;;;;;;2.55;2.05;;;;;;;10.47;83.39;99599.41;1810448;79;20833;-84
2022/10/03 02:21:57;;;;;;;1.70;1.60;;;;;;;10.45;83.70;99596.52;1810411;79;20878;-85
2022/10/03 02:24:44;;;;;;;3.00;1.60;;;;;;;10.43;84.01;99597.14;1810315;79;21811;-84
2022/10/03 02:27:28;;;;;;;2.00;1.87;;;;;;;10.41;84.25;99595.94;1810285;79;21018;-84
2022/10/03 02:30:24;;;;;;;2.85;2.10;;;;;;;10.40;84.53;99604.73;1810398;79;20876;-84
2022/10/03 02:33:31;;;;;;;2.02;1.92;;;;;;;10.40;84.88;99606.52;1810106;79;21402;-84
2022/10/03 02:36:17;;;;;;;2.92;2.72;;;;;;;10.39;85.26;99613.56;1810722;79;21334;-85
2022/10/03 02:39:20;;;;;;;4.33;1.85;;;;;;;10.42;85.68;99608.55;1810952;79;21240;-84
2022/10/03 02:42:18;;;;;;;2.62;2.33;;;;;;;10.46;85.80;99617.38;1811631;79;20872;-83
2022/10/03 02:44:56;;;;;;;2.70;2.08;;;;;;;10.51;85.95;99617.86;1813408;79;20893;-80
2022/10/03 02:48:00;;;;;;;2.33;2.12;;;;;;;10.57;85.98;99618.70;1811440;79;20873;-84
2022/10/03 02:51:09;;;;;;;2.67;2.47;;;;;;;10.62;86.02;99622.77;1810378;79;21346;-85
2022/10/03 02:54:04;;;;;;;2.47;1.77;;;;;;;10.67;85.94;99627.17;1810482;79;21165;-84
2022/10/03 02:56:49;;;;;;;2.05;1.80;;;;;;;10.70;85.91;99629.10;1810270;79;21453;-86
2022/10/03 02:59:49;;;;;;;3.20;2.10;;;;;;;10.73;85.79;99630.65;1778440;79;20905;-85
2022/10/03 03:03:15;;;;;;;2.98;2.15;;;;;;;10.76;85.66;99631.27;1810156;79;20880;-84
2022/10/03 03:06:21;;;;;;;2.90;1.98;;;;;;;10.80;85.64;99638.40;1789236;79;20920;-85
2022/10/03 03:09:15;;;;;;;2.42;2.22;;;;;;;10.84;85.51;99632.45;1810370;79;21138;-84
2022/10/03 03:12:14;;;;;;;6.30;2.47;;;;;;;10.86;85.27;99642.35;1810052;79;20944;-84
2022/10/03 03:15:08;;;;;;;2.40;2.12;;;;;;;10.87;85.26;99640.08;1793852;79;20876;-85
2022/10/03 03:18:14;;;;;;;3.22;1.90;;;;;;;10.88;85.16;99651.77;1810533;79;20941;-84
2022/10/03 03:20:55;;;;;;;3.80;1.80;;;;;;;10.91;85.13;99655.94;1812190;79;21011;-86
2022/10/03 03:23:45;;;;;;;3.25;1.65;;;;;;;10.93;85.01;99657.97;1789130;79;21299;-83
2022/10/03 03:26:42;;;;;;;2.02;1.80;;;;;;;10.94;84.91;99654.41;1810622;79;20908;-83
2022/10/03 03:29:32;;;;;;;1.70;1.55;;;;;;;10.94;84.83;99660.48;1779303;79;20888;-84
2022/10/03 03:32:26;;;;;;;2.00;1.60;;;;;;;10.95;84.73;99670.01;1800179;79;20854;-84
2022/10/03 03:35:13;;;;;;;2.33;1.87;;;;;;;10.98;84.69;99676.80;1809801;79;20912;-86
2022/10/03 03:38:04;;;;;;;3.47;1.60;;;;;;;11.01;84.59;99682.31;1810419;79;21838;-86
2022/10/03 03:41:11;;;;;;;2.05;1.40;;;;;;;11.04;84.44;99677.66;1782859;80;20951;-84
2022/10/03 03:44:04;;;;;;;1.90;1.60;;;;;;;11.05;84.40;99678.03;1783150;80;20864;-85
2022/10/03 03:47:05;;;;;;;2.42;1.57;;;;;;;11.08;84.28;99686.13;1782378;80;21535;-84
2022/10/03 03:49:58;;;;;;;4.28;1.90;;;;;;;11.09;84.18;99681.23;1783094;80;20951;-83
2022/10/03 03:52:53;;;;;;;2.60;1.82;;;;;;;11.10;84.09;99687.68;1736604;81;21236;-83
2022/10/03 03:55:49;;;;;;;4.53;2.22;;;;;;;11.10;84.04;99689.48;1687159;83;20900;-84
2022/10/03 03:58:54;;;;;;;2.35;2.15;;;;;;;11.10;84.09;99688.99;1760582;81;20948;-82
2022/10/03 04:01:56;;;;;;;7.53;3.70;;;;;;;11.10;84.13;99683.74;1778928;80;21035;-85
2022/10/03 04:04:50;;;;;;;4.58;2.40;;;;;;;11.11;84.07;99689.34;1783149;80;20907;-84
2022/10/03 04:07:52;;;;;;;4.45;2.47;;;;;;;11.11;83.98;99681.47;1782606;80;21439;-84
2022/10/03 04:10:47;;;;;;;4.50;2.47;;;;;;;11.10;83.84;99691.62;1782841;80;21097;-84
2022/10/03 04:13:35;;;;;;;3.40;1.70;;;;;;;11.07;83.82;99689.23;1715444;83;20947;-83
2022/10/03 04:20:13;;;;;;;2.65;2.02;;;;;;;11.05;84.00;99695.08;1740699;82;20955;-83
2022/10/03 04:22:54;;;;;;;1.80;1.70;;;;;;;11.04;84.07;99697.33;1810134;78;21126;-85
2022/10/03 04:25:53;;;;;;;2.52;1.92;;;;;;;11.05;84.17;99711.27;1810143;79;21404;-84
2022/10/03 04:28:34;;;;;;;2.25;1.70;;;;;;;11.07;84.19;99714.62;1810269;79;20940;-84
2022/10/03 04:31:28;;;;;;;2.62;1.82;;;;;;;11.10;84.17;99720.48;1814443;79;20928;-85
2022/10/03 04:34:20;;;;;;;5.65;3.70;;;;;;;11.12;84.07;99717.27;1810347;79;21354;-84
2022/10/03 04:37:27;;;;;;;3.75;2.85;;;;;;;11.16;84.02;99716.53;1801726;79;21234;-84
2022/10/03 04:40:33;;;;;;;2.72;2.50;;;;;;;11.23;83.81;99727.39;1809720;79;20904;-83
2022/10/03 04:43:36;;;;;;;3.22;2.17;;;;;;;11.34;83.80;99730.05;1811774;79;20901;-84
2022/10/03 04:46:28;;;;;;;1.98;1.60;;;;;;;11.44;83.34;99736.72;1812832;79;20943;-85
2022/10/03 04:49:39;;;;;;;2.00;1.80;;;;;;;11.48;82.85;99732.91;1812092;79;20955;-85
2022/10/03 04:52:30;;;;;;;4.75;1.77;;;;;;;11.53;82.48;99740.77;1810499;79;21291;-84
2022/10/03 04:57:56;;;;;;;5.83;2.62;;;;;;;11.59;82.06;99748.17;1854636;77;22791;-84
2022/10/03 05:00:40;;;;;;;2.87;2.67;;;;;;;11.54;81.96;99739.83;1797415;78;20998;-84
2022/10/03 05:03:47;;;;;;;4.75;2.27;;;;;;;11.60;82.04;99745.92;1823145;77;21233;-85
2022/10/03 05:06:57;;;;;;;10.28;7.00;;;;;;;11.73;81.78;99752.82;1823898;78;20824;-85
2022/10/03 05:10:04;;;;;;;1.98;1.70;;;;;;;11.79;81.27;99753.17;1824787;77;20919;-85
2022/10/03 05:12:53;;;;;;;3.42;2.10;;;;;;;11.97;81.21;99758.78;1822195;78;20950;-84
2022/10/03 05:15:29;;;;;;;2.40;1.90;;;;;;;12.46;81.05;99757.11;1786224;78;20875;-84
2022/10/03 05:18:37;;;;;;;3.30;1.57;;;;;;;12.75;78.71;99756.02;1822730;78;21222;-84
2022/10/03 05:21:27;;;;;;;3.60;1.42;;;;;;;12.79;77.51;99764.84;1750916;81;21390;-87
2022/10/03 05:24:21;;;;;;;56.90;50.98;;;;;;;12.76;77.12;99761.17;1750980;81;20960;-85
2022/10/03 05:27:14;;;;;;;9.30;5.40;;;;;;;12.83;77.08;99777.28;1750552;82;21023;-84
2022/10/03 05:30:02;;;;;;;10.67;9.40;;;;;;;12.96;76.77;99776.61;1751563;81;20916;-84
2022/10/03 05:32:47;;;;;;;10.68;7.55;;;;;;;13.16;76.19;99778.03;1730466;81;21110;-85
2022/10/03 05:35:28;;;;;;;4.10;3.40;;;;;;;13.27;75.74;99789.80;1751253;81;20948;-85
2022/10/03 05:38:19;;;;;;;3.15;1.82;;;;;;;13.55;75.22;99783.06;1751749;82;20921;-85
2022/10/03 05:41:08;;;;;;;3.08;2.70;;;;;;;14.11;73.93;99796.22;1752357;82;21599;-85
2022/10/03 05:44:00;;;;;;;4.53;1.32;;;;;;;14.97;71.62;99795.14;1751394;81;20881;-85
2022/10/03 05:47:43;;;;;;;3.08;1.50;;;;;;;15.78;68.33;99805.23;1751552;81;21106;-86
2022/10/03 05:50:11;;;;;;;3.08;1.15;;;;;;;16.54;65.75;99804.09;1751657;81;21537;-84
2022/10/03 05:53:00;;;;;;;2.55;1.10;;;;;;;17.34;62.48;99808.09;1702892;82;20968;-85
2022/10/03 05:56:07;;;;;;;3.42;1.62;;;;;;;18.14;60.02;99806.05;1751261;81;21045;-86
2022/10/03 05:59:08;;;;;;;4.85;1.10;;;;;;;18.69;57.65;99809.95;1822543;78;20927;-86
2022/10/03 06:01:41;;;;;;;3.22;1.30;;;;;;;19.30;55.74;99804.32;1822626;78;21128;-87
2022/10/03 06:04:19;;;;;;;6.50;1.20;;;;;;;20.01;54.04;99806.62;1822861;78;20959;-86
2022/10/03 06:07:08;;;;;;;2.77;1.20;;;;;;;20.55;52.12;99804.52;1823805;78;20914;-85
2022/10/03 06:10:06;;;;;;;2.42;1.07;;;;;;;21.11;50.87;99807.25;1822569;78;20923;-86
2022/10/03 06:12:48;;;;;;;14.83;13.55;;;;;;;21.67;49.19;99808.73;1821731;78;20871;-87
2022/10/03 06:15:33;;;;;;;20.52;18.57;;;;;;;22.22;47.76;99812.75;1823102;78;21409;-86
2022/10/03 06:18:27;;;;;;;;;;;;;;;22.60;46.23;99814.39;1824128;78;21444;-86
2022/10/03 06:21:22;;;;;;;3.08;2.47;;;;;;;22.90;45.55;99818.59;1823467;78;20098;-88
2022/10/03 06:24:14;;;;;;;6.12;3.45;;;;;;;23.24;44.10;99825.59;1825012;77;20904;-86
2022/10/03 06:27:16;;;;;;;19.80;17.75;;;;;;;23.54;43.36;99821.70;1824052;78;20884;-84
2022/10/03 06:30:10;;;;;;;3.30;2.10;;;;;;;23.73;42.90;99830.03;1822420;78;21369;-86
2022/10/03 06:33:05;;;;;;;4.37;1.98;;;;;;;24.00;42.34;99833.18;1791169;78;20879;-86
2022/10/03 06:35:59;;;;;;;3.52;1.27;;;;;;;24.23;41.16;99823.17;1823521;78;20875;-85
2022/10/03 06:39:19;;;;;;;5.40;2.00;;;;;;;24.28;40.32;99836.78;1824615;78;21349;-84
2022/10/03 06:42:19;;;;;;;2.75;1.45;;;;;;;24.37;40.63;99836.42;1822657;78;20998;-84
2022/10/03 06:45:17;;;;;;;4.67;1.95;;;;;;;24.76;39.87;99840.25;1822022;78;21134;-89
2022/10/03 06:48:16;;;;;;;2.40;1.10;;;;;;;25.07;39.27;99847.41;1821963;78;20852;-86
2022/10/03 06:51:03;;;;;;;2.77;1.40;;;;;;;25.25;38.20;99844.13;1822184;78;21017;-85
2022/10/03 06:54:17;;;;;;;2.05;0.93;;;;;;;25.12;38.03;99848.95;1822084;78;20891;-85
2022/10/03 06:57:10;;;;;;;1.95;1.10;;;;;;;24.89;37.94;99849.35;1743582;81;20951;-86
2022/10/03 07:00:14;;;;;;;2.70;1.35;;;;;;;24.78;38.53;99858.82;1732068;80;21304;-86
2022/10/03 07:03:02;;;;;;;63.58;57.75;;;;;;;24.80;38.15;99850.88;1732410;83;21014;-86
2022/10/03 07:05:49;;;;;;;5.10;4.42;;;;;;;24.66;38.48;99858.60;1732457;81;20988;-84
2022/10/03 07:08:37;;;;;;;5.42;2.80;;;;;;;24.23;39.07;99860.16;1733032;83;20923;-86
2022/10/03 07:11:48;;;;;;;4.70;2.42;;;;;;;23.81;39.76;99872.73;1733514;81;20911;-85
2022/10/03 07:14:43;;;;;;;4.10;2.70;;;;;;;23.42;40.09;99870.08;1733184;80;21025;-86
2022/10/03 07:17:46;;;;;;;4.15;2.02;;;;;;;22.72;40.86;99873.00;1732195;83;21002;-85
2022/10/03 07:20:48;;;;;;;2.87;2.15;;;;;;;22.05;42.16;99876.70;1732295;83;20919;-87
2022/10/03 07:23:43;;;;;;;6.10;2.00;;;;;;;21.32;43.75;99885.25;1732078;83;20919;-87
2022/10/03 07:27:00;;;;;;;3.77;1.45;;;;;;;20.75;44.65;99880.34;1732184;80;20974;-85
2022/10/03 07:29:59;;;;;;;4.12;2.00;;;;;;;20.40;45.87;99885.16;1732686;81;21279;-82
2022/10/03 07:33:06;;;;;;;22.93;20.68;;;;;;;20.21;46.76;99879.77;1772046;79;20915;-85
2022/10/03 07:38:59;;;;;;;9.45;5.55;;;;;;;20.04;47.38;99890.14;1771293;79;20946;-84
2022/10/03 07:42:00;;;;;;;5.28;4.40;;;;;;;19.81;47.37;99882.89;1797894;78;20899;-85
2022/10/03 07:45:09;;;;;;;5.28;3.02;;;;;;;19.52;48.01;99890.07;1798175;77;21137;-85
2022/10/03 07:47:56;;;;;;;2.83;1.80;;;;;;;19.22;48.69;99897.70;1796991;77;20918;-85
2022/10/03 07:51:05;;;;;;;1.87;1.72;;;;;;;18.97;49.44;99896.05;1797652;78;20986;-84
2022/10/03 07:54:06;;;;;;;2.95;2.15;;;;;;;18.81;49.89;99891.55;1798344;77;20930;-87
2022/10/03 07:56:59;;;;;;;4.10;2.17;;;;;;;18.61;50.17;99884.33;1763201;79;21013;-89
2022/10/03 08:00:00;;;;;;;4.55;1.90;;;;;;;18.27;50.99;99894.98;1762962;79;21225;-85
2022/10/03 08:02:49;;;;;;;4.92;1.80;;;;;;;18.02;51.53;99901.50;1763619;79;20930;-85
2022/10/03 08:05:25;;;;;;;2.02;1.52;;;;;;;17.89;52.32;99895.80;1763616;79;21133;-84
2022/10/03 08:08:49;;;;;;;20.00;16.35;;;;;;;17.78;52.91;99903.48;1764065;81;20891;-85
2022/10/03 08:12:01;;;;;;;20.72;15.10;;;;;;;17.75;53.13;99907.79;1702768;82;20919;-84
2022/10/03 08:14:49;;;;;;;8.70;7.22;;;;;;;17.68;53.40;99904.92;1703001;82;21159;-85
2022/10/03 08:17:33;;;;;;;8.15;4.67;;;;;;;17.53;53.74;99915.75;1704672;81;21022;-85
2022/10/03 08:20:30;;;;;;;4.28;2.15;;;;;;;17.37;54.21;99917.79;1704867;81;21017;-87
2022/10/03 08:23:08;;;;;;;6.17;2.98;;;;;;;17.22;54.47;99925.44;1704220;81;21043;-84
2022/10/03 08:25:56;;;;;;;6.50;2.52;;;;;;;17.06;54.91;99924.80;1702938;81;20949;-85
2022/10/03 08:28:49;;;;;;;3.50;2.15;;;;;;;16.98;55.60;99920.73;1703093;83;21899;-88
2022/10/03 08:32:04;;;;;;;4.05;2.27;;;;;;;17.01;56.02;99914.30;1703052;82;21221;-86
2022/10/03 08:35:08;;;;;;;4.25;2.45;;;;;;;17.01;55.80;99905.03;1700519;81;20935;-85
2022/10/03 08:38:08;;;;;;;7.37;1.90;;;;;;;16.95;55.58;99913.10;1726594;81;20918;-85
2022/10/03 08:40:52;;;;;;;5.03;2.10;;;;;;;16.90;55.74;99912.23;1689477;83;21059;-85
2022/10/03 08:43:49;;;;;;;3.33;1.72;;;;;;;16.90;56.04;99918.86;1726565;81;21158;-85
2022/10/03 08:46:45;;;;;;;4.97;2.67;;;;;;;17.05;56.14;99922.29;1775212;79;21002;-85
2022/10/03 08:49:36;;;;;;;5.50;3.27;;;;;;;17.21;56.02;99925.11;1786236;79;21466;-85
2022/10/03 08:52:20;;;;;;;4.45;2.20;;;;;;;17.37;55.61;99931.87;1782705;79;21338;-88
2022/10/03 08:55:23;;;;;;;3.80;1.60;;;;;;;17.47;54.60;99921.66;1762865;79;21349;-87
2022/10/03 08:58:27;;;;;;;4.10;1.90;;;;;;;17.91;53.93;99913.21;1802124;79;21112;-87
2022/10/03 09:01:24;;;;;;;6.50;2.60;;;;;;;18.16;52.81;99919.50;1811697;79;23693;-87
2022/10/03 09:04:18;;;;;;;3.22;2.27;;;;;;;18.15;52.34;99927.11;1811642;79;20975;-87
2022/10/03 09:07:08;;;;;;;4.65;2.40;;;;;;;18.05;52.53;99925.56;1811519;79;21011;-85
2022/10/03 09:10:15;;;;;;;17.87;16.00;;;;;;;18.03;53.33;99933.70;1811269;79;20904;-85
2022/10/03 09:13:23;;;;;;;16.60;12.18;;;;;;;18.01;52.35;99931.19;1811691;79;20926;-86
2022/10/03 09:16:19;;;;;;;11.00;8.50;;;;;;;17.92;51.67;99937.44;1811553;79;20928;-85
2022/10/03 09:19:08;;;;;;;13.00;10.32;;;;;;;17.97;51.66;99935.14;1748474;82;20895;-86
2022/10/03 09:22:20;;;;;;;3.08;2.20;;;;;;;18.48;52.08;99939.22;1747806;82;20946;-86
2022/10/03 09:25:25;;;;;;;6.10;2.55;;;;;;;18.82;49.67;99944.48;1747678;82;21042;-85
2022/10/03 09:28:30;;;;;;;1.77;1.57;;;;;;;18.99;49.36;99939.23;1747508;82;21081;-89
2022/10/03 09:31:29;;;;;;;2.33;1.70;;;;;;;19.09;48.85;99933.75;1746544;82;21027;-87
2022/10/03 09:34:30;;;;;;;5.75;1.70;;;;;;;19.58;48.53;99952.39;1689124;85;20929;-87
2022/10/03 09:37:31;;;;;;;4.42;1.98;;;;;;;20.19;47.19;99941.68;1679737;85;21060;-86
2022/10/03 09:40:38;;;;;;;2.35;1.07;;;;;;;20.91;45.55;99939.37;1689136;85;20961;-86
2022/10/03 09:43:13;;;;;;;2.02;1.87;;;;;;;21.19;43.77;99938.36;1689074;85;21255;-85
2022/10/03 09:45:54;;;;;;;2.92;1.07;;;;;;;21.01;43.94;99945.80;1689147;85;20937;-84
2022/10/03 09:48:53;;;;;;;5.12;1.25;;;;;;;20.90;43.73;99951.88;1689277;85;20921;-85
2022/10/03 09:51:56;;;;;;;2.87;1.22;;;;;;;21.03;43.21;99951.79;1689833;85;21023;-86
2022/10/03 09:54:46;;;;;;;1.67;1.15;;;;;;;21.19;42.20;99951.70;1690906;85;21079;-86
2022/10/03 09:57:21;;;;;;;3.25;1.32;;;;;;;21.17;42.64;99953.71;1752672;81;21242;-86
2022/10/03 10:00:15;;;;;;;3.85;1.30;;;;;;;21.28;41.75;99953.30;1759104;81;21019;-86
2022/10/03 10:03:01;;;;;;;2.37;1.10;;;;;;;21.53;42.04;99954.47;1756294;81;20862;-86
2022/10/03 10:05:47;;;;;;;;;;;;;;;21.97;41.43;99967.59;1762181;81;20996;-85
2022/10/03 10:08:51;;;;;;;7.70;4.60;;;;;;;22.41;40.21;99961.44;1793855;79;20082;-87
2022/10/03 10:11:27;;;;;;;10.90;8.70;;;;;;;22.88;39.39;99969.03;1735974;82;21218;-86
2022/10/03 10:14:21;;;;;;;7.12;5.35;;;;;;;23.22;39.01;99963.55;1735621;82;20910;-86
2022/10/03 10:17:25;;;;;;;4.03;2.62;;;;;;;23.69;38.48;99963.45;1735507;82;20962;-87
2022/10/03 10:20:11;;;;;;;5.15;3.20;;;;;;;24.14;38.06;99971.22;1735429;82;20990;-88
2022/10/03 10:22:59;;;;;;;4.08;2.90;;;;;;;24.38;36.91;99962.69;1734807;82;20911;-86
2022/10/03 10:26:00;;;;;;;2.12;1.40;;;;;;;24.36;37.00;99968.76;1735447;82;21178;-86
2022/10/03 10:28:52;;;;;;;3.17;1.80;;;;;;;24.28;36.88;99964.08;1729732;82;21472;-88
2022/10/03 10:31:35;;;;;;;4.47;1.45;;;;;;;24.41;36.58;99952.94;1735275;82;21491;-88
2022/10/03 10:34:48;;;;;;;2.25;1.27;;;;;;;24.46;36.05;99975.64;1736164;82;21531;-88
2022/10/03 10:37:41;;;;;;;2.65;1.42;;;;;;;24.34;36.19;99974.83;1735772;82;20931;-87
2022/10/03 10:40:19;;;;;;;3.60;1.47;;;;;;;24.25;35.71;99976.02;1735607;82;21096;-90
2022/10/03 10:43:27;;;;;;;3.58;1.52;;;;;;;23.99;35.54;99985.56;1735058;82;20919;-86
2022/10/03 10:46:31;;;;;;;5.17;2.22;;;;;;;23.58;36.34;99988.89;1704135;82;20994;-87
2022/10/03 10:49:26;;;;;;;;;;;;;;;23.13;37.19;99993.61;1793179;79;20923;-87
2022/10/03 10:52:42;;;;;;;2.35;1.20;;;;;;;22.72;38.10;99986.13;1753042;79;20078;-86
2022/10/03 10:55:58;;;;;;;3.17;1.27;;;;;;;22.52;39.18;99989.88;1816649;79;21220;-84
2022/10/03 10:58:56;;;;;;;3.55;1.27;;;;;;;22.32;39.01;99988.27;1814447;78;20880;-85
2022/10/03 11:01:44;;;;;;;2.92;1.12;;;;;;;22.02;40.02;100006.58;1812801;79;21014;-86
2022/10/03 11:04:39;;;;;;;2.12;1.10;;;;;;;21.79;39.60;99995.45;1812696;79;20923;-85
2022/10/03 11:07:46;;;;;;;2.92;1.10;;;;;;;21.64;40.22;99995.39;1811590;78;21370;-85
2022/10/03 11:10:27;;;;;;;1.47;0.82;;;;;;;21.73;40.54;99989.48;1808624;79;21179;-86
2022/10/03 11:13:36;;;;;;;4.45;1.75;;;;;;;21.99;40.13;99997.09;1811203;79;21010;-85
2022/10/03 11:16:24;;;;;;;4.78;2.12;;;;;;;22.15;40.32;100006.78;1811120;79;21101;-87
2022/10/03 11:19:17;;;;;;;2.72;2.05;;;;;;;22.13;39.50;100006.14;1811003;79;20963;-87
2022/10/03 11:22:13;;;;;;;2.70;1.20;;;;;;;21.87;39.35;100003.36;1794698;79;20821;-86
2022/10/03 11:25:08;;;;;;;2.80;1.30;;;;;;;21.51;40.09;100006.66;1811165;79;21204;-86
2022/10/03 11:28:00;;;;;;;6.25;1.47;;;;;;;21.21;40.78;100003.02;1811469;79;21030;-85
2022/10/03 11:34:06;;;;;;;3.70;0.90;;;;;;;20.57;41.59;100005.83;1852567;77;27801;-86
2022/10/03 11:36:55;;;;;;;2.87;1.00;;;;;;;20.32;41.52;100010.37;1826770;78;20962;-88
2022/10/03 11:39:50;;;;;;;2.08;1.50;;;;;;;20.09;41.65;100016.89;1790264;77;21053;-86
2022/10/03 11:42:49;;;;;;;7.03;1.98;;;;;;;19.87;42.30;100011.76;1822370;78;20907;-86
2022/10/03 11:45:43;;;;;;;3.95;0.98;;;;;;;19.74;43.07;100015.42;1790114;79;20887;-85
2022/10/03 11:48:42;;;;;;;3.70;1.07;;;;;;;19.60;43.28;100013.73;1783642;79;20931;-88
2022/10/03 11:51:14;;;;;;;3.00;0.75;;;;;;;19.42;43.26;100000.58;1729592;81;20982;-86
2022/10/03 11:53:48;;;;;;;2.35;0.90;;;;;;;19.18;43.45;100011.18;1729062;83;21140;-87
2022/10/03 11:56:40;;;;;;;4.45;1.32;;;;;;;18.94;43.75;100010.61;1729320;81;21032;-86
2022/10/03 11:59:41;;;;;;;1.72;1.05;;;;;;;18.72;44.74;100012.84;1729034;83;20911;-85
2022/10/03 12:02:19;;;;;;;4.70;1.85;;;;;;;18.57;45.70;100011.78;1728726;80;21389;-86
2022/10/03 12:05:28;;;;;;;2.30;1.20;;;;;;;18.44;45.75;100013.03;1729614;83;20980;-88
2022/10/03 12:10:56;;;;;;;2.62;0.90;;;;;;;18.22;46.76;100005.11;1729976;83;20879;-89
2022/10/03 12:14:01;;;;;;;5.80;1.67;;;;;;;18.19;46.76;99999.30;1729746;83;20967;-86
2022/10/03 12:16:56;;;;;;;2.42;1.50;;;;;;;18.14;46.09;100015.70;1729615;81;20923;-86
2022/10/03 12:20:02;;;;;;;2.83;1.15;;;;;;;18.04;46.33;100003.01;1729631;83;21002;-86
2022/10/03 12:22:53;;;;;;;2.02;1.07;;;;;;;17.93;47.13;100008.57;1700250;84;21834;-86
2022/10/03 12:25:29;;;;;;;2.50;0.90;;;;;;;17.81;47.34;100003.52;1723035;82;20935;-87
2022/10/03 12:28:20;;;;;;;3.83;1.80;;;;;;;17.75;47.54;100000.11;1744640;82;20904;-86
2022/10/03 12:31:09;;;;;;;1.32;1.00;;;;;;;17.66;47.76;100010.81;1744513;82;20908;-87
2022/10/03 12:33:59;;;;;;;3.27;1.25;;;;;;;17.58;47.94;100011.06;1745024;81;21057;-87
2022/10/03 12:36:48;;;;;;;2.40;0.72;;;;;;;17.57;48.04;100005.44;1744592;82;21259;-87
2022/10/03 12:39:23;;;;;;;1.65;1.02;;;;;;;17.54;47.72;100003.09;1744553;82;20947;-87
2022/10/03 12:42:08;;;;;;;1.20;1.10;;;;;;;17.54;47.93;100004.42;1744580;81;20904;-85
2022/10/03 12:44:54;;;;;;;2.55;0.60;;;;;;;17.58;48.30;100002.28;1724151;82;21112;-87
2022/10/03 12:48:09;;;;;;;3.05;1.05;;;;;;;17.58;47.94;100000.95;1744209;81;21074;-88
2022/10/03 12:50:56;;;;;;;2.60;1.15;;;;;;;17.58;48.25;100004.44;1744123;81;21141;-87
2022/10/03 12:53:37;;;;;;;6.33;0.90;;;;;;;17.55;48.13;99999.45;1775820;78;20895;-86
2022/10/03 12:56:45;;;;;;;7.00;1.17;;;;;;;17.55;48.30;100006.58;1789487;79;20903;-85
2022/10/03 12:59:41;;;;;;;8.10;4.30;;;;;;;17.54;48.10;100008.41;1787890;80;21416;-85
2022/10/03 13:02:19;;;;;;;1.82;0.90;;;;;;;17.51;48.06;100007.86;1821651;78;21384;-85
2022/10/03 13:05:22;;;;;;;2.10;1.00;;;;;;;17.49;48.24;100013.80;1821519;78;21288;-87
2022/10/03 13:08:08;;;;;;;2.17;0.78;;;;;;;17.49;48.63;100016.45;1789120;80;20927;-85
2022/10/03 13:10:41;;;;;;;3.20;0.85;;;;;;;17.50;49.04;100008.86;1786141;80;20919;-86
2022/10/03 13:13:32;;;;;;;3.45;0.82;;;;;;;17.50;48.68;100010.19;1821514;78;20934;-86
2022/10/03 13:16:28;;;;;;;3.05;1.07;;;;;;;17.49;48.76;100012.48;1821924;78;20860;-84
2022/10/03 13:19:17;;;;;;;1.60;0.95;;;;;;;17.46;48.85;100008.82;1789576;79;21240;-85
2022/10/03 13:22:10;;;;;;;1.57;0.80;;;;;;;17.45;49.42;100014.59;1821512;78;20919;-86
2022/10/03 13:24:42;;;;;;;1.35;0.95;;;;;;;17.43;48.74;100013.94;1820838;78;21368;-86
2022/10/03 13:27:36;;;;;;;4.08;1.67;;;;;;;17.37;48.87;100010.06;1821840;78;20923;-85
2022/10/03 13:30:17;;;;;;;2.50;1.07;;;;;;;17.34;48.97;100019.65;1758930;79;20955;-85
2022/10/03 13:32:59;;;;;;;1.47;0.80;;;;;;;17.30;48.66;100018.28;1824696;78;21225;-86
2022/10/03 13:35:58;;;;;;;3.90;0.90;;;;;;;17.27;48.27;100013.75;1827382;78;21036;-86
2022/10/03 13:39:15;;;;;;;1.10;0.70;;;;;;;17.22;47.99;100026.63;1794754;79;20930;-86
2022/10/03 13:42:02;;;;;;;1.05;0.60;;;;;;;17.17;47.93;100021.78;1793290;80;20978;-86
2022/10/03 13:44:54;;;;;;;3.35;1.55;;;;;;;17.08;48.08;100020.86;1826326;78;20875;-86
2022/10/03 13:47:38;;;;;;;3.52;1.10;;;;;;;17.03;48.25;100021.80;1827356;78;21254;-85
2022/10/03 13:50:30;;;;;;;5.65;3.22;;;;;;;16.89;48.13;100035.03;1794945;79;21499;-87
2022/10/03 13:53:38;;;;;;;4.30;2.10;;;;;;;16.89;48.13;100035.03;1793286;80;21349;-86